KAE weather

Kake Seaplane Base
Kake, Alaska, United States

Public forecast

Using degrees Fahrenheit for public forecast. Weather courtesy of forecast.io.

METAR (pilot weather report)

Closest report is Kake Airport, 1.4 nm (2.5 km) ESE. Retrieved 2019/09/21 04:56 UTC (44 minutes ago):

PAFE 210456Z AUTO 13014G21KT 8SM RA OVC010 13/13 A2954 RMK AO2 PK WND 13028/0410 CIG 008V012 SLP016 P0014 T01330128

TAF (pilot weather forecast)

Forecast is more than 12 hours old.

Closest forecast is Petersburg James A Johnson Airport, 34.4 nm (63.7 km) ESE. Retrieved 2019/09/20 00:24 UTC (1 day ago):

TAF PAPG 202322Z 2100/2124 12010KT 6SM -RA BR SCT015 BKN025 OVC040 WS020/15040KT TEMPO 2101/2105 2SM RA BR BKN008 OVC015 FM210600 16008KT 6SM -RA BR SCT008 OVC020 TEMPO 2106/2110 2SM RA BR BKN008 OVC015 FM211500 13010KT 4SM -RA BR OVC025 AMD LTD TO CLD VIS AND WIND 2106/2115